Airfield :
LOGIN :

Register | Disclaimer

   EN    FR    IT 

 










Legend :    VFR   Marginal VFR   IFR   Intensive IFR   Very Intensive IFR
Visi :
Ceiling :
>= 8 km
>= 3000ft
5 to 8 km
1000 to 3000 ft
1500m to 5 km
500 to 1000 ft
800 to 1500m
200 to 500 ft
< 800m
< 200 ft
Symbols :   Thunderstorms  Fog  Heavy snow  Heavy precipitations  Wind > 20 kt
SIGMETs :     Misc.  Thunderstorms  Icing  Turbulence  Mountain Waves  Volcanic Ashes







- Airport Elevation : 529 ft
- IATA code : CHR
- Download approach charts


LFLX - Chateauroux

CURRENT METAR :
  • 130530Z AUTO 08012KT 3200 BR OVC002 M02/M03 Q1010 TEMPO BKN012 BECMG 9999 NSW

EXPIRED METARs :
  • 130500Z AUTO 09011KT 5000 BR OVC003 M02/M03 Q1010 TEMPO BKN012
  • 130430Z AUTO 08010KT 8000 SCT005 OVC210 M02/M03 Q1011 TEMPO BKN012
  • 130400Z AUTO 08011KT 8000 NSC M02/M03 Q1011 TEMPO BKN012
  • 130330Z AUTO 07010KT 9000 FEW026 BKN210 M01/M03 Q1011 TEMPO BKN012
  • 130300Z AUTO 07010KT 9000 NSC M01/M03 Q1012 TEMPO BKN012

TAF AMD TAF LFLX
Valid from the 13 at 06:00 until the 14 at 12:00 UTC


130544Z 1306/1412 08008KT CAVOK
TEMPO 1306/1312 2000 BR BKN009
PROB40
TEMPO 1306/1309 0900 FG VV///
TEMPO 1403/1412 BKN009
PROB30
TEMPO 1405/1409 0800 BCFG BKN002
No reported NOTAMs for that airfield.



MET'MAP, your aeronautical weather chart ! - Copyright ORBIFLY December 2007 - Disclaimer

ORBIFLY MET'MAP TEAM :

Programming & Development : Alexandra Zaïnal
Concept & Development : Baudouin d'Aumeries
Co-Development & Prog : Marc-Olivier Méhu
Technical & hardware support : Manuel Goepfert

Contact : metmap@orbifly.com




SOURCES & CREDITS :

   NOAA